»·PEaware :: N4QS KGEG-KBOI

N4QS :: KGEG-KBOI

FLIGHT INFORMATION

Flight Status: Arrived
Operator: Privately registered:
United States
More flights under this callsign
Pilot: Anonymous 36068 (36068)
Aircraft: BEECH AIRCRAFT PREMIER
(PRM1)
More flights by this aircraft type
Origin: KGEG Spokane Intl
United States
Destination: KBOI Boise Air Terminal/Gowen
United States
More flights between these airports :: More routes between these airports
Route: GEG6 GEG DNJ COLLR BEWTE3
File this flight plan on PilotEdge
Remarks:
Altitude:
(Current/Filed)
25,000ft
Speed:
(Current/Filed)
400kts
Departed: 31-Oct-21 10:47 AM
Arrived: 31-Oct-21 11:43 AM
Distance/Time
Traveled:
249nm/0:56
Distance/Time
To Go:
Arrived

Flight Plot

Page will automatically refresh every two minutes.

Flight plan parsing failed; only flown route is shown


Map Options




Map Legend


Flown Route
Filed Route
Departure Airport
Arrival Airport
Navaid (VOR, NDB)
Fix

Horizontal Profiles

Position Reports

Time Latitude Longitude Heading Altitude Ground
Speed
31-Oct-21 10:23 47.623321 -117.538100 316 2362ft 0kts
31-Oct-21 10:24 47.623321 -117.538100 316 2362ft 0kts
31-Oct-21 10:25 47.623321 -117.538100 316 2362ft 0kts
31-Oct-21 10:26 47.623321 -117.538100 316 2362ft 0kts
31-Oct-21 10:27 47.623321 -117.538100 316 2362ft 0kts
31-Oct-21 10:28 47.623321 -117.538100 316 2362ft 0kts
31-Oct-21 10:29 47.623321 -117.538100 316 2362ft 0kts
31-Oct-21 10:30 47.623321 -117.538100 316 2362ft 0kts
31-Oct-21 10:31 47.623321 -117.538100 316 2362ft 0kts
31-Oct-21 10:32 47.623321 -117.538100 316 2362ft 0kts
31-Oct-21 10:33 47.623321 -117.538100 316 2362ft 0kts
31-Oct-21 10:34 47.623321 -117.538100 316 2362ft 0kts
31-Oct-21 10:35 47.623321 -117.538100 316 2362ft 0kts
31-Oct-21 10:36 47.623321 -117.538100 316 2362ft 0kts
31-Oct-21 10:37 47.623321 -117.538100 316 2362ft 0kts
31-Oct-21 10:38 47.622813 -117.537935 150 2362ft 6kts
31-Oct-21 10:39 47.620090 -117.539057 224 2366ft 14kts
31-Oct-21 10:40 47.618183 -117.546325 270 2372ft 24kts
31-Oct-21 10:41 47.618174 -117.552666 255 2381ft 8kts
31-Oct-21 10:42 47.618010 -117.552937 203 2381ft 0kts
31-Oct-21 10:43 47.618010 -117.552937 203 2381ft 0kts
31-Oct-21 10:44 47.618010 -117.552937 203 2381ft 0kts
31-Oct-21 10:45 47.616965 -117.552533 87 2379ft 8kts
31-Oct-21 10:46 47.612504 -117.510021 126 3061ft 199kts
31-Oct-21 10:47 47.566619 -117.439279 133 5620ft 271kts
31-Oct-21 10:48 47.510476 -117.353433 133 8151ft 308kts
31-Oct-21 10:49 47.449318 -117.259985 134 10667ft 323kts
31-Oct-21 10:50 47.385423 -117.166504 152 13141ft 326kts
31-Oct-21 10:51 47.298333 -117.134921 165 15678ft 322kts
31-Oct-21 10:52 47.211322 -117.101497 165 17784ft 328kts
31-Oct-21 10:53 47.122846 -117.067635 165 19777ft 331kts
31-Oct-21 10:54 47.033828 -117.033628 166 21758ft 332kts
31-Oct-21 10:55 46.944977 -117.000185 164 23769ft 327kts
31-Oct-21 10:56 46.857775 -116.966852 164 25178ft 336kts
31-Oct-21 10:57 46.761589 -116.930509 164 25188ft 377kts
31-Oct-21 10:58 46.656067 -116.890828 164 25194ft 404kts
31-Oct-21 10:59 46.545062 -116.849270 164 25209ft 416kts
31-Oct-21 11:00 46.433868 -116.807802 164 25209ft 412kts
31-Oct-21 11:01 46.322924 -116.766597 164 25209ft 410kts
31-Oct-21 11:02 46.212713 -116.725833 164 25209ft 408kts
31-Oct-21 11:03 46.102983 -116.685416 164 25208ft 408kts
31-Oct-21 11:04 45.992874 -116.645023 164 25184ft 408kts
31-Oct-21 11:05 45.882760 -116.604799 164 25155ft 408kts
31-Oct-21 11:06 45.772958 -116.564846 164 25155ft 408kts
31-Oct-21 11:07 45.662834 -116.524942 164 25155ft 408kts
31-Oct-21 11:08 45.552733 -116.485204 164 25153ft 408kts
31-Oct-21 11:09 45.442793 -116.445697 164 25151ft 408kts
31-Oct-21 11:10 45.331388 -116.405748 165 23960ft 423kts
31-Oct-21 11:11 45.218582 -116.365563 165 23079ft 410kts
31-Oct-21 11:12 45.110028 -116.327046 165 23079ft 395kts
31-Oct-21 11:13 45.005104 -116.289887 166 23079ft 387kts
31-Oct-21 11:14 44.901084 -116.253267 166 23080ft 383kts
31-Oct-21 11:15 44.797984 -116.217075 166 23083ft 382kts
31-Oct-21 11:16 44.693584 -116.226979 190 23055ft 376kts
31-Oct-21 11:17 44.592175 -116.255259 190 18197ft 385kts
31-Oct-21 11:18 44.493485 -116.282742 190 15016ft 342kts
31-Oct-21 11:19 44.405509 -116.307155 190 12550ft 313kts
31-Oct-21 11:20 44.324157 -116.332524 192 11004ft 291kts
31-Oct-21 11:21 44.243657 -116.358838 192 11001ft 304kts
31-Oct-21 11:22 44.160010 -116.385077 191 11006ft 310kts
31-Oct-21 11:23 44.075607 -116.410895 191 11009ft 312kts
31-Oct-21 11:24 43.992616 -116.413294 139 10784ft 303kts
31-Oct-21 11:25 43.940713 -116.335904 133 9012ft 243kts
31-Oct-21 11:26 43.892533 -116.261338 133 9002ft 276kts
31-Oct-21 11:27 43.841539 -116.182659 133 8993ft 273kts
31-Oct-21 11:28 43.791155 -116.105003 133 8991ft 271kts
31-Oct-21 11:29 43.741111 -116.027795 133 8985ft 256kts
31-Oct-21 11:30 43.696326 -115.958364 133 8992ft 241kts
31-Oct-21 11:31 43.651118 -115.888230 132 8991ft 247kts
31-Oct-21 11:32 43.607285 -115.820095 132 8986ft 223kts
31-Oct-21 11:33 43.559125 -115.791102 201 8723ft 216kts
31-Oct-21 11:34 43.508366 -115.838247 221 7993ft 217kts
31-Oct-21 11:35 43.466514 -115.890287 221 7669ft 204kts
31-Oct-21 11:36 43.464157 -115.961530 301 6778ft 197kts
31-Oct-21 11:37 43.493190 -116.020242 297 5831ft 179kts
31-Oct-21 11:38 43.512880 -116.075483 293 4964ft 151kts
31-Oct-21 11:39 43.530111 -116.125768 294 4171ft 140kts
31-Oct-21 11:40 43.546058 -116.172399 294 3459ft 128kts
31-Oct-21 11:41 43.560883 -116.216118 295 2854ft 116kts
31-Oct-21 11:42 43.566346 -116.232889 260 2836ft 2kts
31-Oct-21 11:43 43.566119 -116.233262 207 2835ft 0kts
31-Oct-21 11:44 43.564978 -116.233972 258 2834ft 9kts
31-Oct-21 11:45 43.564537 -116.238450 203 2824ft 7kts
31-Oct-21 11:46 43.563903 -116.238553 175 2822ft 0kts

Navigation Log

Ident Type
Flight plan parsing failed, navigation log unavailable